createdAt,value
2022-12-11T00:04:53.000Z,101.87
2022-12-11T00:09:53.000Z,101.79
2022-12-11T00:14:53.000Z,101.70
2022-12-11T00:19:53.000Z,101.61
2022-12-11T00:24:53.000Z,101.64
2022-12-11T00:29:53.000Z,101.67
2022-12-11T00:34:53.000Z,101.70
2022-12-11T00:39:53.000Z,101.79
2022-12-11T00:44:53.000Z,101.87
2022-12-11T00:49:53.000Z,101.90
2022-12-11T00:54:53.000Z,101.85
2022-12-11T01:00:08.000Z,101.96
2022-12-11T01:04:53.000Z,101.99
2022-12-11T01:09:53.000Z,102.08
2022-12-11T01:14:53.000Z,102.08
2022-12-11T01:19:53.000Z,102.00
2022-12-11T01:24:53.000Z,101.91
2022-12-11T01:29:53.000Z,101.69
2022-12-11T01:34:53.000Z,101.57
2022-12-11T01:39:53.000Z,101.41
2022-12-11T01:44:53.000Z,101.26
2022-12-11T01:50:08.000Z,100.95
2022-12-11T01:55:08.000Z,100.76
2022-12-11T01:59:53.000Z,100.67
2022-12-11T02:04:53.000Z,100.74
2022-12-11T02:09:53.000Z,100.67
2022-12-11T02:15:08.000Z,100.59
2022-12-11T02:19:53.000Z,100.42
2022-12-11T02:24:53.000Z,100.54
2022-12-11T02:29:53.000Z,100.97
2022-12-11T02:34:53.000Z,101.17
2022-12-11T02:39:53.000Z,101.06
2022-12-11T02:44:53.000Z,100.98
2022-12-11T02:49:53.000Z,100.78
2022-12-11T02:54:53.000Z,100.83
2022-12-11T02:59:53.000Z,100.95
2022-12-11T03:04:53.000Z,100.80
2022-12-11T03:09:53.000Z,100.38
2022-12-11T03:14:53.000Z,100.10
2022-12-11T03:19:53.000Z,99.81
2022-12-11T03:24:53.000Z,99.59
2022-12-11T03:29:53.000Z,99.62
2022-12-11T03:34:53.000Z,100.10
2022-12-11T03:39:53.000Z,99.82
2022-12-11T03:44:53.000Z,99.45
2022-12-11T03:49:53.000Z,99.54
2022-12-11T03:54:53.000Z,99.26
2022-12-11T03:59:53.000Z,99.14
2022-12-11T04:04:53.000Z,99.03
2022-12-11T04:09:53.000Z,99.15
2022-12-11T04:14:53.000Z,99.29
2022-12-11T04:19:53.000Z,99.35
2022-12-11T04:24:53.000Z,100.23
2022-12-11T04:29:53.000Z,101.13
2022-12-11T04:34:53.000Z,101.13
2022-12-11T04:39:53.000Z,101.25
2022-12-11T04:44:53.000Z,101.10
2022-12-11T04:49:53.000Z,100.93
2022-12-11T04:54:53.000Z,100.67
2022-12-11T04:59:53.000Z,100.25
2022-12-11T05:04:53.000Z,100.11
2022-12-11T05:09:53.000Z,100.17
2022-12-11T05:14:53.000Z,100.25
2022-12-11T05:19:53.000Z,100.29
2022-12-11T05:24:53.000Z,100.74
2022-12-11T05:29:53.000Z,100.96
2022-12-11T05:34:53.000Z,101.16
2022-12-11T05:39:53.000Z,101.16
2022-12-11T05:44:53.000Z,101.18
2022-12-11T05:49:53.000Z,101.21
2022-12-11T05:54:53.000Z,101.26
2022-12-11T05:59:53.000Z,101.22
2022-12-11T06:04:53.000Z,101.19
2022-12-11T06:09:53.000Z,101.16
2022-12-11T06:14:53.000Z,100.94
2022-12-11T06:19:53.000Z,100.65
2022-12-11T06:24:53.000Z,100.48
2022-12-11T06:29:53.000Z,100.40
2022-12-11T06:34:53.000Z,100.23
2022-12-11T06:39:53.000Z,100.03
2022-12-11T06:44:53.000Z,100.00
2022-12-11T06:49:53.000Z,99.88
2022-12-11T06:54:53.000Z,99.74
2022-12-11T06:59:53.000Z,99.61
2022-12-11T07:04:53.000Z,99.53
2022-12-11T07:09:53.000Z,99.64
2022-12-11T07:14:53.000Z,99.76
2022-12-11T07:19:53.000Z,99.61
2022-12-11T07:24:53.000Z,99.67
2022-12-11T07:29:53.000Z,99.70
2022-12-11T07:34:53.000Z,99.90
2022-12-11T07:39:53.000Z,99.98
2022-12-11T07:44:53.000Z,99.94
2022-12-11T07:49:53.000Z,99.88
2022-12-11T07:54:53.000Z,99.45
2022-12-11T07:59:53.000Z,99.16
2022-12-11T08:04:53.000Z,98.96
2022-12-11T08:09:53.000Z,98.81
2022-12-11T08:14:53.000Z,98.73
2022-12-11T08:19:53.000Z,98.69
2022-12-11T08:24:53.000Z,98.98
2022-12-11T08:30:08.000Z,98.93
2022-12-11T08:34:53.000Z,98.98
2022-12-11T08:39:53.000Z,98.98
2022-12-11T08:44:53.000Z,99.09
2022-12-11T08:49:53.000Z,99.16
2022-12-11T08:54:53.000Z,99.45
2022-12-11T08:59:53.000Z,99.25
2022-12-11T09:04:53.000Z,99.37
2022-12-11T09:09:53.000Z,99.64
2022-12-11T09:14:53.000Z,99.93
2022-12-11T09:19:53.000Z,99.86
2022-12-11T09:24:53.000Z,99.98
2022-12-11T09:29:53.000Z,100.55
2022-12-11T09:34:53.000Z,100.77
2022-12-11T09:39:53.000Z,100.68
2022-12-11T09:44:53.000Z,100.79
2022-12-11T09:49:53.000Z,100.90
2022-12-11T09:54:53.000Z,100.90
2022-12-11T09:59:53.000Z,100.84
2022-12-11T10:04:53.000Z,100.10
2022-12-11T10:09:53.000Z,99.93
2022-12-11T10:14:53.000Z,100.27
2022-12-11T10:19:53.000Z,100.38
2022-12-11T10:24:53.000Z,100.52
2022-12-11T10:29:53.000Z,100.44
2022-12-11T10:34:53.000Z,100.41
2022-12-11T10:39:53.000Z,100.49
2022-12-11T10:44:53.000Z,100.41
2022-12-11T10:49:53.000Z,100.29
2022-12-11T10:54:53.000Z,100.12
2022-12-11T10:59:53.000Z,99.83
2022-12-11T11:04:53.000Z,99.58
2022-12-11T11:09:53.000Z,99.62
2022-12-11T11:14:53.000Z,99.49
2022-12-11T11:19:53.000Z,99.31
2022-12-11T11:24:53.000Z,98.94
2022-12-11T11:29:53.000Z,98.49
2022-12-11T11:34:53.000Z,98.09
2022-12-11T11:39:53.000Z,97.81
2022-12-11T11:44:53.000Z,98.61
2022-12-11T11:49:53.000Z,98.75
2022-12-11T11:54:53.000Z,98.69
2022-12-11T11:59:53.000Z,98.61
2022-12-11T12:04:53.000Z,98.61
2022-12-11T12:09:53.000Z,98.66
2022-12-11T12:14:53.000Z,98.69
2022-12-11T12:19:53.000Z,98.94
2022-12-11T12:24:53.000Z,99.11
2022-12-11T12:29:53.000Z,99.22
2022-12-11T12:34:53.000Z,99.45
2022-12-11T12:39:53.000Z,99.39
2022-12-11T12:44:53.000Z,99.38
2022-12-11T12:49:53.000Z,99.07
2022-12-11T12:54:53.000Z,98.93
2022-12-11T12:59:53.000Z,98.79
2022-12-11T13:04:53.000Z,98.70
2022-12-11T13:09:53.000Z,98.90
2022-12-11T13:14:53.000Z,99.09
2022-12-11T13:19:53.000Z,98.93
2022-12-11T13:24:54.000Z,99.09
2022-12-11T13:29:53.000Z,98.98
2022-12-11T13:34:53.000Z,98.24
2022-12-11T13:39:53.000Z,97.19
2022-12-11T13:44:53.000Z,97.96
2022-12-11T13:49:53.000Z,98.28
2022-12-11T13:54:53.000Z,98.79
2022-12-11T13:59:53.000Z,98.37
2022-12-11T14:04:53.000Z,98.45
2022-12-11T14:09:53.000Z,98.54
2022-12-11T14:14:53.000Z,97.58
2022-12-11T14:19:53.000Z,98.58
2022-12-11T14:24:53.000Z,98.77
2022-12-11T14:29:53.000Z,99.04
2022-12-11T14:34:53.000Z,99.24
2022-12-11T14:39:53.000Z,99.07
2022-12-11T14:45:00.000Z,99.35
2022-12-11T14:50:00.000Z,99.42
2022-12-11T14:55:00.000Z,99.58
2022-12-11T15:00:00.000Z,99.61
2022-12-11T15:05:00.000Z,99.56
2022-12-11T15:10:00.000Z,100.07
2022-12-11T15:15:00.000Z,99.96
2022-12-11T15:20:00.000Z,99.93
2022-12-11T15:25:00.000Z,99.83
2022-12-11T15:30:00.000Z,100.11
2022-12-11T15:35:00.000Z,100.06
2022-12-11T15:40:00.000Z,99.80
2022-12-11T15:45:00.000Z,100.19
2022-12-11T15:50:00.000Z,100.17
2022-12-11T15:55:00.000Z,100.09
2022-12-11T16:00:00.000Z,100.32
2022-12-11T16:05:01.000Z,100.54
2022-12-11T16:10:00.000Z,100.32
2022-12-11T16:15:01.000Z,100.45
2022-12-11T16:20:01.000Z,100.48
2022-12-11T16:25:00.000Z,100.10
2022-12-11T16:30:00.000Z,100.21
2022-12-11T16:35:00.000Z,99.53
2022-12-11T16:40:00.000Z,98.87
2022-12-11T16:45:00.000Z,98.55
2022-12-11T16:50:00.000Z,98.49
2022-12-11T16:55:01.000Z,98.64
2022-12-11T17:00:00.000Z,99.66
2022-12-11T17:05:00.000Z,100.43
2022-12-11T17:10:00.000Z,100.72
2022-12-11T17:15:00.000Z,101.10
2022-12-11T17:20:00.000Z,101.16
2022-12-11T17:25:00.000Z,101.12
2022-12-11T17:30:00.000Z,101.00
2022-12-11T17:35:01.000Z,100.97
2022-12-11T17:40:00.000Z,100.75
2022-12-11T17:45:00.000Z,100.35
2022-12-11T17:50:00.000Z,100.12
2022-12-11T17:55:00.000Z,99.94
2022-12-11T18:00:00.000Z,100.19
2022-12-11T18:05:00.000Z,100.77
2022-12-11T18:10:00.000Z,100.90
2022-12-11T18:15:00.000Z,100.96
2022-12-11T18:20:00.000Z,100.93
2022-12-11T18:25:00.000Z,100.94
2022-12-11T18:30:00.000Z,99.99
2022-12-11T18:35:00.000Z,99.66
2022-12-11T18:40:00.000Z,99.66
2022-12-11T18:45:00.000Z,99.88
2022-12-11T18:50:00.000Z,100.19
2022-12-11T18:55:00.000Z,100.79
2022-12-11T19:00:00.000Z,100.87
2022-12-11T19:05:00.000Z,100.56
2022-12-11T19:10:01.000Z,100.28
2022-12-11T19:15:00.000Z,100.39
2022-12-11T19:20:00.000Z,100.39
2022-12-11T19:25:01.000Z,100.42
2022-12-11T19:30:00.000Z,100.22
2022-12-11T19:35:00.000Z,100.28
2022-12-11T19:40:00.000Z,100.37
2022-12-11T19:45:00.000Z,100.47
2022-12-11T19:50:01.000Z,100.35
2022-12-11T19:55:00.000Z,100.16
2022-12-11T20:00:00.000Z,100.04
2022-12-11T20:05:01.000Z,100.24
2022-12-11T20:10:00.000Z,100.21
2022-12-11T20:15:01.000Z,100.04
2022-12-11T20:20:00.000Z,99.96
2022-12-11T20:25:00.000Z,99.87
2022-12-11T20:30:00.000Z,100.10
2022-12-11T20:35:00.000Z,99.99
2022-12-11T20:40:01.000Z,100.19
2022-12-11T20:45:00.000Z,100.16
2022-12-11T20:50:01.000Z,100.17
2022-12-11T20:55:00.000Z,100.17
2022-12-11T21:00:00.000Z,100.11
2022-12-11T21:05:00.000Z,100.00
2022-12-11T21:10:00.000Z,100.09
2022-12-11T21:15:01.000Z,100.35
2022-12-11T21:20:01.000Z,100.44
2022-12-11T21:25:00.000Z,100.37
2022-12-11T21:30:00.000Z,100.40
2022-12-11T21:35:00.000Z,100.59
2022-12-11T21:40:00.000Z,100.48
2022-12-11T21:45:01.000Z,100.34
2022-12-11T21:50:00.000Z,100.25
2022-12-11T21:55:00.000Z,100.17
2022-12-11T22:00:00.000Z,100.14
2022-12-11T22:05:00.000Z,100.08
2022-12-11T22:10:00.000Z,100.06
2022-12-11T22:15:01.000Z,100.22
2022-12-11T22:20:00.000Z,100.11
2022-12-11T22:25:01.000Z,100.00
2022-12-11T22:30:00.000Z,99.88
2022-12-11T22:35:00.000Z,99.85
2022-12-11T22:40:00.000Z,99.83
2022-12-11T22:45:01.000Z,99.65
2022-12-11T22:50:00.000Z,99.40
2022-12-11T22:55:00.000Z,99.34
2022-12-11T23:00:01.000Z,99.34
2022-12-11T23:05:01.000Z,99.29
2022-12-11T23:10:01.000Z,99.09
2022-12-11T23:15:01.000Z,99.00
2022-12-11T23:20:01.000Z,99.06
2022-12-11T23:25:01.000Z,99.03
2022-12-11T23:30:01.000Z,98.97
2022-12-11T23:35:01.000Z,98.61
2022-12-11T23:40:01.000Z,98.41
2022-12-11T23:45:01.000Z,98.27
2022-12-11T23:50:01.000Z,98.10
2022-12-11T23:55:01.000Z,97.71
